Henderson, Nevada Weather observations

Data are for observation ending at time listed.
 Day   Time    Ave.   Ave.  Ave.  Vector   Max.   Stn.    Total    Solar   Ave.  
  of    of     Air    Rel.  Wind   Wind    Wind   Baro.  Precip.   Rad.    Soil  
Year   Day     Temp.  Hum.  Speed  Dir.    Gust   Pres.                    Temp. 
2017   (PST)    F      %     mph   deg.    mph     mb.     in.     W/m2     F   
------------------------------------------------------------------------------
  21    8:10   45.9    55    7.4   236     18.0   925.8    0.00     209    41.7
  21    8:20   45.9    54    8.7   242     18.4   926.1    0.00     242    41.7
  21    8:30   46.0    53    9.6   252     17.5   926.4    0.00     273    41.7
  21    8:40   46.5    53    9.4   250     16.7   926.6    0.00     306    41.8
  21    8:50   46.8    52    9.2   246     17.3   926.9    0.00     337    41.7
  21    9:00   47.3    51    8.1   242     17.2   927.3    0.00     366    41.9
  21    9:10   47.9    50    6.8   239     13.6   927.4    0.00     396    41.9
  21    9:20   48.5    49    6.6   232     13.5   927.6    0.00     423    41.9
  21    9:30   49.2    48    5.8   235     11.6   928.0    0.00     450    41.7
  21    9:40   49.2    48    7.0   240     20.9   928.2    0.00     475    41.9
  21    9:50   49.5    47    6.4   238     14.2   928.6    0.00     499    41.9
  21   10:00   50.3    46    5.5   232     15.4   929.0    0.00     521    42.0
  21   10:10   50.5    46    6.7   229     14.7   929.2    0.00     542    42.0
  21   10:20   51.2    44    5.4   219     15.6   929.5    0.00     561    42.2
  21   10:30   51.5    44    5.2   227     14.8   929.6    0.00     579    42.2
  21   10:40   52.1    43    5.2   220     11.2   929.6    0.00     595    42.2
  21   10:50   53.1    40    5.1   226     11.8   929.7    0.00     610    42.3
  21   11:00   52.8    40    6.4   234     13.7   929.8    0.00     622    42.5
  21   11:10   52.9    40    5.5   230     13.0   929.9    0.00     634    42.6
  21   11:20   53.3    40    6.0   240     12.0   929.8    0.00     643    42.8
  21   11:30   53.6    40    7.6   242     15.7   929.7    0.00     649    43.0
  21   11:40   53.8    38    6.4   244     12.1   929.7    0.00     659    43.0
  21   11:50   54.1    38    6.0   242     12.1   929.7    0.00     662    43.1
  21   12:00   54.2    36    7.1   249     12.4   929.7    0.00     662    43.2
  21   12:10   54.7    36    5.4   246     10.4   929.8    0.00     662    43.1
  21   12:20   54.9    36    5.0   224      9.6   929.9    0.00     660    43.3
  21   12:30   55.0    35    5.1   236     12.0   930.1    0.00     651    43.3
  21   12:40   55.0    35    4.5   261     11.7   930.2    0.00     648    43.4
  21   12:50   55.4    34    5.0   274     13.7   930.3    0.00     636    43.4
  21   13:00   54.6    32    4.6   282     10.7   930.4    0.00     629    43.6
  21   13:10   55.1    31    2.3   315      6.9   930.5    0.00     615    43.6
  21   13:20   55.9    32    2.6   265      8.3   930.7    0.00     602    43.6
  21   13:30   56.3    32    4.1   234      9.0   930.8    0.00     586    43.7
  21   13:40   56.3    30    4.1   204      9.6   930.9    0.00     570    43.7
  21   13:50   56.3    32    5.0   224     10.8   931.0    0.00     549    43.8
  21   14:00   55.9    33    4.9   230     11.3   931.3    0.00     528    43.7
  21   14:10   56.0    32    4.6   212      9.6   931.4    0.00     506    43.8
  21   14:20   56.1    33    5.2   219     10.4   931.6    0.00     481    43.8
  21   14:30   55.8    32    5.6   220     12.9   931.8    0.00     457    43.8
  21   14:40   55.8    32    6.0   221     12.1   931.9    0.00     429    43.9
  21   14:50   55.6    33    5.8   231     11.9   932.0    0.00     400    43.9
  21   15:00   55.5    32    6.2   247     13.8   932.0    0.00     372    44.1
  21   15:10   55.4    32    5.1   236     12.2   932.1    0.00     341    44.0
  21   15:20   55.1    32    6.5   230     14.8   932.3    0.00     311    44.1
  21   15:30   54.8    33    6.2   231     12.6   932.6    0.00     280    44.1
  21   15:40   54.6    36    5.6   232     11.5   932.7    0.00     247    44.2
  21   15:50   54.3    36    6.8   240     13.7   933.0    0.00     215    44.1
  21   16:00   53.9    36    5.7   228     13.6   933.2    0.00     183    44.2
  21   16:10   53.6    37    6.8   243     12.2   933.3    0.00     150    44.2
  21   16:20   53.3    38    5.2   234     11.0   933.5    0.00     113    44.2
  21   16:30   53.0    39    4.6   230     10.0   933.7    0.00      42    44.3
  21   16:40   52.7    39    4.9   220     11.1   933.8    0.00      16    44.3
  21   16:50   52.1    41    3.6   227     11.8   933.8    0.00       9    44.3
  21   17:00   51.7    42    2.8   210      7.4   933.9    0.00       7    44.1
  21   17:10   51.3    42    3.4   210      6.6   934.0    0.00       4    44.4
  21   17:20   50.9    43    4.2   212      8.8   934.2    0.00       0    44.4
  21   17:30   50.7    43    4.0   222      8.8   934.5    0.00       0    44.3
  21   17:40   50.7    43    2.5   220      7.7   934.7    0.00       0    44.1
  21   17:50   50.4    43    3.5   222      9.4   934.9    0.00       0    44.2
  21   18:00   50.5    42    3.7   219      8.3   935.1    0.00       0    44.0
  21   18:10   50.3    43    3.1   204      6.8   935.1    0.00       0    43.9
  21   18:20   49.9    44    3.1   210      5.8   935.3    0.00       0    44.0
  21   18:30   49.9    43    4.1   218     10.8   935.4    0.00       0    43.9
  21   18:40   50.0    43    3.5   231     10.4   935.5    0.00       0    43.8
  21   18:50   50.0    44    3.7   234     10.2   935.6    0.00       0    43.8
  21   19:00   49.9    45    2.3   229      7.0   935.8    0.00       0    43.8
  21   19:10   49.8    45    2.6   209      6.5   936.0    0.00       0    43.7
  21   19:20   49.7    45    2.4   198      6.1   936.1    0.00       0    43.6
  21   19:30   49.6    46    3.0   184      6.2   936.4    0.00       0    43.5
  21   19:40   49.1    48    1.9   130      5.4   936.6    0.00       0    43.5
  21   19:50   47.9    50    2.0    99      3.9   936.8    0.00       0    43.5
  21   20:00   46.7    53    2.1   117      4.0   936.9    0.00       0    43.4
  21   20:10   45.6    56    1.4   179      3.4   937.1    0.00       0    43.5
  21   20:20   45.8    56    1.8   142      4.3   937.3    0.00       0    43.2
  21   20:30   45.7    58    2.6   124      3.9   937.3    0.00       0    43.3
  21   20:40   45.4    60    2.2   127      3.6   937.4    0.00       0    43.2
  21   20:50   45.9    58    2.3   153      4.6   937.5    0.00       0    43.1
  21   21:00   46.1    58    2.5   153      4.9   937.7    0.00       0    43.0
  21   21:10   46.3    57    3.2   186      6.4   937.8    0.00       0    43.0
  21   21:20   46.8    56    2.8   175      5.8   938.0    0.00       0    43.0
  21   21:30   46.8    56    3.0   212      5.4   938.1    0.00       0    42.9
  21   21:40   46.9    55    2.6   213      5.8   938.1    0.00       0    42.8
  21   21:50   47.0    55    2.8   214      6.9   938.2    0.00       0    42.8
  21   22:00   47.0    55    2.1   219      4.9   938.3    0.00       0    42.7
  21   22:10   46.7    56    2.4   207      6.4   938.3    0.00       0    42.8
  21   22:20   47.3    52    3.4   169      7.1   938.2    0.00       0    42.7
  21   22:30   47.9    51    3.7   174      8.7   938.2    0.00       0    42.6
  21   22:40   48.0    50    5.3   187      9.5   938.5    0.00       0    42.8
  21   22:50   48.0    50    3.1   170      6.6   938.6    0.00       0    42.6
  21   23:00   47.8    51    2.5   196      5.9   938.7    0.00       0    42.6
  21   23:10   47.0    55    1.9   201      3.8   938.7    0.00       0    42.6
  21   23:20   46.6    55    2.8   193      4.7   938.5    0.00       0    42.5
  21   23:30   46.5    55    2.1   173      5.1   938.5    0.00       0    42.7
  21   23:40   46.3    56    2.3   133      3.7   938.3    0.00       0    42.6
  21   23:50   45.8    58    2.3   128      3.9   938.3    0.00       0    42.7
  22    0:00   46.3    55    2.1   171      5.6   938.5    0.00       0    42.6
  22    0:10   46.7    53    2.7   183      4.7   938.6    0.00       0    42.6
  22    0:20   46.6    54    1.1   140      2.1   938.7    0.00       0    42.7
  22    0:30   46.5    55    1.7   134      4.8   938.7    0.00       0    42.6
  22    0:40   45.9    58    2.2   137      4.1   938.5    0.00       0    42.6
  22    0:50   45.5    59    2.7   138      5.5   937.8    0.00       0    42.6
  22    1:00   45.7    59    2.4   143      5.3   938.0    0.00       0    42.5
  22    1:10   46.2    58    2.1   162      5.9   938.4    0.00       0    42.6
  22    1:20   46.2    57    2.1   173      5.3   939.0    0.00       0    42.6
  22    1:30   46.6    56    1.1   141      3.0   939.2    0.00       0    42.5
  22    1:40   46.2    57    2.2   127      3.4   938.8    0.00       0    42.6
  22    1:50   45.7    58    3.7   118      5.6   938.8    0.00       0    42.4
  22    2:00   45.8    59    1.9   132      3.9   938.9    0.00       0    42.5
  22    2:10   46.0    60    1.8   188      5.8   939.2    0.00       0    42.7
  22    2:20   46.0    60    2.2   119      3.7   939.3    0.00       0    42.5
  22    2:30   46.1    59    3.5   117      5.8   939.1    0.00       0    42.4
  22    2:40   46.1    59    2.0   126      3.4   938.9    0.00       0    42.5
  22    2:50   46.3    57    2.0   188      5.8   938.6    0.00       0    42.5
  22    3:00   47.0    54    4.2   183     12.0   938.9    0.00       0    42.4
  22    3:10   47.6    52    3.6   171      8.0   939.1    0.00       0    42.5
  22    3:20   47.3    53    4.5   191      8.8   939.4    0.00       0    42.6
  22    3:30   47.0    54    4.8   187      8.4   939.3    0.00       0    42.4
  22    3:40   46.9    56    5.1   171     12.0   939.2    0.00       0    42.5
  22    3:50   46.2    61    4.1   176     10.0   939.0    0.00       0    42.3
  22    4:00   45.4    67    3.4   150     12.7   938.8    0.00       0    42.5
  22    4:10   45.1    71    3.4   115      5.9   938.7    0.00       0    42.7
  22    4:20   45.3    70    2.4   133      4.5   938.8    0.00       0    42.4
  22    4:30   45.6    66    2.4   136      5.6   938.6    0.00       0    42.8
  22    4:40   45.8    63    2.3   159      6.0   938.9    0.00       0    42.5
  22    4:50   45.7    64    2.4   187      5.0   939.1    0.00       0    42.5
  22    5:00   45.4    66    1.8   134      4.2   939.0    0.00       0    42.8
  22    5:10   45.0    68    2.2   134      6.4   938.8    0.00       0    42.6
  22    5:20   44.7    73    1.0   101      2.9   938.8    0.00       0    42.7
  22    5:30   44.5    73    0.8   226      1.8   939.0    0.00       0    42.7
  22    5:40   44.3    74    1.1   184      2.8   939.1    0.00       0    42.7
  22    5:50   44.5    71    1.0   163      2.5   939.3    0.00       0    42.6
  22    6:00   45.2    68    1.5   149      3.4   939.5    0.00       0    42.7
  22    6:10   45.7    66    2.0   182      4.3   939.6    0.00       0    42.6
  22    6:20   45.8    66    1.5   144      3.9   939.8    0.00       0    42.6
  22    6:30   45.6    68    1.3   147      3.3   939.9    0.00       0    42.7
  22    6:40   45.9    64    2.5   171      6.2   940.0    0.00       0    42.7
  22    6:50   46.1    63    2.0   167      4.8   939.7    0.00       0    42.7
  22    7:00   46.3    63    3.4   152     12.1   939.8    0.00       0    42.7
  22    7:10   46.7    64    5.7   159     12.6   939.8    0.00       7    42.7
  22    7:20   46.3    67    5.3   152     11.6   939.7    0.00       7    42.7
  22    7:30   46.3    68    3.9   155      9.6   939.7    0.00      12    42.8
  22    7:40   46.4    67    4.0   153     11.0   939.8    0.00      25    42.8
  22    7:50   46.8    66    4.2   156     10.3   939.8    0.00      35    42.8
  22    8:00   46.8    67    4.2   151     12.4   940.1    0.00      26    42.8

Return to Henderson, Nevada graphs page.


Western Regional Climate Center,wrcc@dri.edu